Time,TemperatureF,DewpointF,PressureIn,WindDirection,WindDirectionDegrees,WindSpeedMPH,WindSpeedGustMPH,Humidity,HourlyPrecipIn,Conditions,Clouds,dailyrainin,SoftwareType,DateUTC
2013-07-18 00:01:00,61.0,53.0,-100.00,NNW,340,2.0,3.0,76,0.00,,,0.03,,2013-07-18 06:01:00,
2013-07-18 00:22:00,59.0,54.0,-100.00,NW,305,5.0,7.0,81,0.00,,,0.03,,2013-07-18 06:22:00,
2013-07-18 00:32:00,59.0,54.0,-100.00,NW,305,5.0,7.0,81,0.00,,,0.03,,2013-07-18 06:32:00,
2013-07-18 00:43:00,61.0,51.0,-100.00,NW,306,5.0,6.0,69,0.00,,,0.03,,2013-07-18 06:43:00,
2013-07-18 00:52:00,61.0,51.0,-100.00,NW,306,5.0,6.0,69,0.00,,,0.03,,2013-07-18 06:52:00,
2013-07-18 01:01:00,61.0,51.0,-100.00,NW,306,5.0,6.0,69,0.00,,,0.03,,2013-07-18 07:01:00,
2013-07-18 01:11:00,61.0,51.0,-100.00,NW,306,5.0,6.0,69,0.00,,,0.03,,2013-07-18 07:11:00,
2013-07-18 01:22:00,61.0,50.0,-100.00,WNW,298,3.0,6.0,68,0.00,,,0.03,,2013-07-18 07:22:00,
2013-07-18 01:32:00,61.0,50.0,-100.00,WNW,298,3.0,6.0,68,0.00,,,0.03,,2013-07-18 07:32:00,
2013-07-18 01:42:00,59.0,50.0,-100.00,NW,316,3.0,5.0,70,0.00,,,0.03,,2013-07-18 07:42:00,
2013-07-18 01:52:00,58.0,50.0,-100.00,North,352,2.0,3.0,73,0.00,,,0.03,,2013-07-18 07:52:00,
2013-07-18 02:01:00,58.0,50.0,-100.00,North,352,2.0,3.0,73,0.00,,,0.03,,2013-07-18 08:01:00,
2013-07-18 02:11:00,58.0,50.0,-100.00,North,352,2.0,3.0,73,0.00,,,0.03,,2013-07-18 08:11:00,
2013-07-18 02:32:00,55.0,50.0,-100.00,NNW,337,2.0,4.0,83,0.00,,,0.03,,2013-07-18 08:32:00,
2013-07-18 02:42:00,55.0,50.0,-100.00,NNW,337,2.0,4.0,83,0.00,,,0.03,,2013-07-18 08:42:00,
2013-07-18 02:51:00,55.0,50.0,-100.00,North,10,1.0,2.0,85,0.00,,,0.03,,2013-07-18 08:51:00,
2013-07-18 03:00:00,54.0,49.0,-100.00,NW,319,1.0,1.0,82,0.00,,,0.03,,2013-07-18 09:00:00,
2013-07-18 03:01:00,55.0,50.0,-100.00,North,10,1.0,2.0,85,0.00,,,0.03,,2013-07-18 09:01:00,
2013-07-18 03:11:00,55.0,50.0,-100.00,North,10,1.0,2.0,85,0.00,,,0.03,,2013-07-18 09:11:00,
2013-07-18 03:31:00,54.0,49.0,-100.00,NW,319,1.0,1.0,82,0.00,,,0.03,,2013-07-18 09:31:00,
2013-07-18 03:41:00,54.0,49.0,-100.00,NW,319,1.0,1.0,82,0.00,,,0.03,,2013-07-18 09:41:00,
2013-07-18 03:51:00,54.0,49.0,-100.00,NW,319,1.0,1.0,82,0.00,,,0.03,,2013-07-18 09:51:00,
2013-07-18 04:11:00,53.0,49.0,-100.00,NW,305,0.0,1.0,85,0.00,,,0.03,,2013-07-18 10:11:00,
2013-07-18 04:21:00,53.0,49.0,-100.00,NW,305,0.0,1.0,85,0.00,,,0.03,,2013-07-18 10:21:00,
2013-07-18 04:32:00,53.0,49.0,-100.00,NW,305,0.0,1.0,85,0.00,,,0.03,,2013-07-18 10:32:00,
2013-07-18 04:42:00,53.0,49.0,-100.00,NW,305,0.0,1.0,85,0.00,,,0.03,,2013-07-18 10:42:00,
2013-07-18 04:52:00,53.0,48.0,-100.00,WNW,294,0.0,1.0,84,0.00,,,0.02,,2013-07-18 10:52:00,
2013-07-18 05:01:00,53.0,48.0,-100.00,WNW,294,0.0,1.0,84,0.00,,,0.02,,2013-07-18 11:01:00,
2013-07-18 05:11:00,52.0,46.0,-100.00,NW,318,1.0,2.0,82,0.00,,,0.02,,2013-07-18 11:11:00,
2013-07-18 05:22:00,52.0,46.0,-100.00,NW,318,1.0,2.0,82,0.00,,,0.02,,2013-07-18 11:22:00,
2013-07-18 05:32:00,52.0,46.0,-100.00,NW,318,1.0,2.0,82,0.00,,,0.02,,2013-07-18 11:32:00,
2013-07-18 05:43:00,52.0,46.0,-100.00,NW,318,1.0,2.0,82,0.00,,,0.02,,2013-07-18 11:43:00,
2013-07-18 06:01:00,51.0,46.0,-100.00,WNW,298,0.0,1.0,83,0.00,,,0.02,,2013-07-18 12:01:00,
2013-07-18 06:11:00,51.0,46.0,-100.00,WNW,298,0.0,1.0,83,0.00,,,0.02,,2013-07-18 12:11:00,
2013-07-18 06:22:00,51.0,46.0,-100.00,WNW,298,0.0,1.0,83,0.00,,,0.02,,2013-07-18 12:22:00,
2013-07-18 06:32:00,51.0,47.0,-100.00,WNW,301,2.0,3.0,86,0.00,,,0.02,,2013-07-18 12:32:00,
2013-07-18 06:42:00,51.0,47.0,-100.00,WNW,301,2.0,3.0,86,0.00,,,0.02,,2013-07-18 12:42:00,
2013-07-18 06:52:00,51.0,47.0,-100.00,WNW,301,2.0,3.0,86,0.00,,,0.02,,2013-07-18 12:52:00,
2013-07-18 07:01:00,51.0,48.0,-100.00,WNW,284,1.0,2.0,89,0.00,,,0.02,,2013-07-18 13:01:00,
2013-07-18 07:11:00,51.0,48.0,-100.00,WNW,284,1.0,2.0,89,0.00,,,0.02,,2013-07-18 13:11:00,
2013-07-18 07:22:00,51.0,48.0,-100.00,WNW,284,1.0,2.0,89,0.00,,,0.02,,2013-07-18 13:22:00,
2013-07-18 07:32:00,51.0,47.0,-100.00,NW,304,1.0,2.0,86,0.00,,,0.02,,2013-07-18 13:32:00,
2013-07-18 07:43:00,51.0,47.0,-100.00,NW,304,1.0,2.0,86,0.00,,,0.02,,2013-07-18 13:43:00,
2013-07-18 07:53:00,51.0,47.0,-100.00,NW,304,1.0,2.0,86,0.00,,,0.02,,2013-07-18 13:53:00,
2013-07-18 08:11:00,54.0,48.0,-100.00,NNW,330,3.0,4.0,81,0.00,,,0.02,,2013-07-18 14:11:00,
2013-07-18 08:22:00,54.0,48.0,-100.00,NNW,330,3.0,4.0,81,0.00,,,0.02,,2013-07-18 14:22:00,
2013-07-18 08:32:00,55.0,48.0,-100.00,NW,326,4.0,5.0,78,0.00,,,0.02,,2013-07-18 14:32:00,
2013-07-18 08:43:00,59.0,49.0,-100.00,NW,320,3.0,5.0,70,0.00,,,0.02,,2013-07-18 14:43:00,
2013-07-18 08:53:00,59.0,49.0,-100.00,NW,320,3.0,5.0,70,0.00,,,0.02,,2013-07-18 14:53:00,
2013-07-18 09:11:00,63.0,48.0,-100.00,NNW,342,2.0,3.0,59,0.00,,,0.02,,2013-07-18 15:11:00,
2013-07-18 09:43:00,65.0,47.0,-100.00,NW,326,4.0,5.0,52,0.00,,,0.02,,2013-07-18 15:43:00,
2013-07-18 09:53:00,65.0,47.0,-100.00,NW,326,4.0,5.0,52,0.00,,,0.02,,2013-07-18 15:53:00,
2013-07-18 10:01:00,65.0,48.0,-100.00,NW,325,6.0,9.0,53,0.00,,,0.02,,2013-07-18 16:01:00,
2013-07-18 10:11:00,65.0,48.0,-100.00,NW,325,6.0,9.0,53,0.00,,,0.02,,2013-07-18 16:11:00,
2013-07-18 10:31:00,67.0,46.0,-100.00,East,96,2.0,4.0,48,0.00,,,0.02,,2013-07-18 16:31:00,
2013-07-18 10:42:00,67.0,46.0,-100.00,East,96,2.0,4.0,48,0.00,,,0.02,,2013-07-18 16:42:00,
2013-07-18 10:52:00,67.0,46.0,-100.00,East,96,2.0,4.0,48,0.00,,,0.02,,2013-07-18 16:52:00,
2013-07-18 11:01:00,67.0,46.0,-100.00,NW,318,4.0,7.0,47,0.00,,,0.02,,2013-07-18 17:01:00,
2013-07-18 11:11:00,67.0,46.0,-100.00,NW,318,4.0,7.0,47,0.00,,,0.02,,2013-07-18 17:11:00,
2013-07-18 11:22:00,67.0,46.0,-100.00,NW,318,4.0,7.0,47,0.00,,,0.02,,2013-07-18 17:22:00,
2013-07-18 11:33:00,68.0,46.0,-100.00,NNW,330,4.0,7.0,45,0.00,,,0.02,,2013-07-18 17:33:00,
2013-07-18 11:43:00,68.0,46.0,-100.00,NNW,330,4.0,7.0,45,0.00,,,0.02,,2013-07-18 17:43:00,
2013-07-18 11:52:00,68.0,46.0,-100.00,NNW,330,4.0,7.0,45,0.00,,,0.02,,2013-07-18 17:52:00,
2013-07-18 12:11:00,69.0,45.0,-100.00,NW,326,6.0,9.0,41,0.00,,,0.02,,2013-07-18 18:11:00,
2013-07-18 12:22:00,69.0,45.0,-100.00,NW,326,6.0,9.0,41,0.00,,,0.02,,2013-07-18 18:22:00,
2013-07-18 12:32:00,71.0,43.0,-100.00,NNW,347,1.0,2.0,37,0.00,,,0.02,,2013-07-18 18:32:00,
2013-07-18 12:43:00,71.0,43.0,-100.00,NNW,347,1.0,2.0,37,0.00,,,0.02,,2013-07-18 18:43:00,
2013-07-18 12:52:00,71.0,43.0,-100.00,NNW,347,1.0,2.0,37,0.00,,,0.02,,2013-07-18 18:52:00,
2013-07-18 13:00:00,75.0,35.0,-100.00,SE,124,3.0,6.0,23,0.00,,,0.02,,2013-07-18 19:00:00,
2013-07-18 13:01:00,73.0,29.0,-100.00,South,181,4.0,9.0,20,0.00,,,0.02,,2013-07-18 19:01:00,
2013-07-18 13:11:00,73.0,29.0,-100.00,South,181,4.0,9.0,20,0.00,,,0.02,,2013-07-18 19:11:00,
2013-07-18 13:22:00,73.0,29.0,-100.00,South,181,4.0,9.0,20,0.00,,,0.02,,2013-07-18 19:22:00,
2013-07-18 13:53:00,75.0,35.0,-100.00,SE,124,3.0,6.0,23,0.00,,,0.02,,2013-07-18 19:53:00,
2013-07-18 14:21:00,77.0,27.0,-100.00,SW,234,5.0,9.0,16,0.00,,,0.02,,2013-07-18 20:21:00,
2013-07-18 14:30:00,78.0,27.0,-100.00,WSW,237,3.0,7.0,15,0.00,,,0.02,,2013-07-18 20:30:00,
2013-07-18 14:32:00,77.0,27.0,-100.00,SW,234,5.0,9.0,16,0.00,,,0.02,,2013-07-18 20:32:00,
2013-07-18 14:43:00,75.0,23.0,-100.00,ESE,103,5.0,9.0,14,0.00,,,0.02,,2013-07-18 20:43:00,
2013-07-18 14:52:00,75.0,23.0,-100.00,ESE,103,5.0,9.0,14,0.00,,,0.02,,2013-07-18 20:52:00,
2013-07-18 15:11:00,78.0,27.0,-100.00,WSW,237,3.0,7.0,15,0.00,,,0.02,,2013-07-18 21:11:00,
2013-07-18 15:22:00,78.0,27.0,-100.00,WSW,237,3.0,7.0,15,0.00,,,0.02,,2013-07-18 21:22:00,
2013-07-18 15:52:00,75.0,28.0,-100.00,NW,326,11.0,17.0,17,0.00,,,0.02,,2013-07-18 21:52:00,
2013-07-18 16:00:00,77.0,28.0,-100.00,NNW,328,5.0,7.0,16,0.00,,,0.02,,2013-07-18 22:00:00,
2013-07-18 16:01:00,75.0,28.0,-100.00,NW,326,11.0,17.0,17,0.00,,,0.02,,2013-07-18 22:01:00,
2013-07-18 16:11:00,75.0,28.0,-100.00,NW,326,11.0,17.0,17,0.00,,,0.02,,2013-07-18 22:11:00,
2013-07-18 16:22:00,77.0,28.0,-100.00,NNW,343,4.0,8.0,16,0.00,,,0.02,,2013-07-18 22:22:00,
2013-07-18 16:32:00,77.0,28.0,-100.00,NNW,343,4.0,8.0,16,0.00,,,0.02,,2013-07-18 22:32:00,
2013-07-18 16:42:00,77.0,28.0,-100.00,NNW,328,5.0,7.0,16,0.00,,,0.02,,2013-07-18 22:42:00,
2013-07-18 16:53:00,77.0,28.0,-100.00,NNW,328,5.0,7.0,16,0.00,,,0.02,,2013-07-18 22:53:00,
2013-07-18 17:22:00,77.0,28.0,-100.00,NW,311,9.0,12.0,16,0.00,,,0.02,,2013-07-18 23:22:00,
2013-07-18 17:32:00,77.0,28.0,-100.00,NW,311,9.0,12.0,16,0.00,,,0.02,,2013-07-18 23:32:00,
2013-07-18 17:42:00,77.0,31.0,-100.00,NNW,328,11.0,16.0,19,0.00,,,0.00,,2013-07-18 23:42:00,
2013-07-18 17:52:00,77.0,31.0,-100.00,NNW,328,11.0,16.0,19,0.00,,,0.00,,2013-07-18 23:52:00,
2013-07-18 18:01:00,77.0,31.0,-100.00,NNW,328,11.0,16.0,19,0.00,,,0.00,,2013-07-19 00:01:00,
2013-07-18 18:11:00,77.0,31.0,-100.00,NNW,328,11.0,16.0,19,0.00,,,0.00,,2013-07-19 00:11:00,
2013-07-18 18:22:00,77.0,31.0,-100.00,NW,319,11.0,17.0,19,0.00,,,0.00,,2013-07-19 00:22:00,
2013-07-18 18:32:00,77.0,31.0,-100.00,NW,319,11.0,17.0,19,0.00,,,0.00,,2013-07-19 00:32:00,
2013-07-18 18:42:00,76.0,29.0,-100.00,NNW,330,12.0,17.0,18,0.00,,,0.00,,2013-07-19 00:42:00,
2013-07-18 18:52:00,76.0,29.0,-100.00,NNW,330,12.0,17.0,18,0.00,,,0.00,,2013-07-19 00:52:00,
2013-07-18 19:01:00,76.0,29.0,-100.00,NNW,330,12.0,17.0,18,0.00,,,0.00,,2013-07-19 01:01:00,
2013-07-18 19:22:00,76.0,30.0,-100.00,NW,312,9.0,12.0,18,0.00,,,0.00,,2013-07-19 01:22:00,
2013-07-18 19:32:00,76.0,30.0,-100.00,NW,312,9.0,12.0,18,0.00,,,0.00,,2013-07-19 01:32:00,
2013-07-18 19:42:00,75.0,30.0,-100.00,NW,318,6.0,8.0,19,0.00,,,0.00,,2013-07-19 01:42:00,
2013-07-18 19:52:00,75.0,30.0,-100.00,NW,318,6.0,8.0,19,0.00,,,0.00,,2013-07-19 01:52:00,
2013-07-18 20:01:00,75.0,30.0,-100.00,NW,318,6.0,8.0,19,0.00,,,0.00,,2013-07-19 02:01:00,
2013-07-18 20:22:00,73.0,30.0,-100.00,NW,315,8.0,14.0,20,0.00,,,0.00,,2013-07-19 02:22:00,
2013-07-18 20:32:00,73.0,30.0,-100.00,NW,315,8.0,14.0,20,0.00,,,0.00,,2013-07-19 02:32:00,
2013-07-18 20:52:00,69.0,29.0,-100.00,NW,306,6.0,8.0,22,0.00,,,0.00,,2013-07-19 02:52:00,
2013-07-18 21:01:00,69.0,29.0,-100.00,NW,306,6.0,8.0,22,0.00,,,0.00,,2013-07-19 03:01:00,
2013-07-18 21:22:00,66.0,31.0,-100.00,NW,320,4.0,7.0,26,0.00,,,0.00,,2013-07-19 03:22:00,
2013-07-18 21:32:00,66.0,31.0,-100.00,NW,320,4.0,7.0,26,0.00,,,0.00,,2013-07-19 03:32:00,
2013-07-18 21:52:00,64.0,32.0,-100.00,NW,319,3.0,4.0,30,0.00,,,0.00,,2013-07-19 03:52:00,
2013-07-18 22:02:00,64.0,32.0,-100.00,NW,319,3.0,4.0,30,0.00,,,0.00,,2013-07-19 04:02:00,
2013-07-18 22:11:00,61.0,34.0,-100.00,NNW,342,2.0,3.0,36,0.00,,,0.00,,2013-07-19 04:11:00,
2013-07-18 22:22:00,61.0,34.0,-100.00,NNW,342,2.0,3.0,36,0.00,,,0.00,,2013-07-19 04:22:00,
2013-07-18 22:32:00,61.0,34.0,-100.00,NNW,342,2.0,3.0,36,0.00,,,0.00,,2013-07-19 04:32:00,
2013-07-18 22:43:00,60.0,32.0,-100.00,NNW,344,3.0,4.0,35,0.00,,,0.00,,2013-07-19 04:43:00,
2013-07-18 23:02:00,60.0,32.0,-100.00,NNW,335,4.0,5.0,34,0.00,,,0.00,,2013-07-19 05:02:00,
2013-07-18 23:11:00,60.0,32.0,-100.00,NNW,335,4.0,5.0,34,0.00,,,0.00,,2013-07-19 05:11:00,
2013-07-18 23:22:00,60.0,32.0,-100.00,NNW,335,4.0,5.0,34,0.00,,,0.00,,2013-07-19 05:22:00,
2013-07-18 23:32:00,60.0,33.0,-100.00,NNW,347,3.0,4.0,36,0.00,,,0.00,,2013-07-19 05:32:00,
2013-07-18 23:43:00,59.0,30.0,-100.00,NNW,339,4.0,6.0,33,0.00,,,0.00,,2013-07-19 05:43:00,
2013-07-18 23:53:00,59.0,30.0,-100.00,NNW,339,4.0,6.0,33,0.00,,,0.00,,2013-07-19 05:53:00,